createdAt,value
2022-10-15T00:01:35.451Z,13.95
2022-10-15T00:06:59.528Z,13.95
2022-10-15T00:12:24.709Z,13.94
2022-10-15T00:17:52.557Z,13.96
2022-10-15T00:23:19.417Z,13.97
2022-10-15T00:28:43.446Z,13.97
2022-10-15T00:34:13.395Z,14.00
2022-10-15T00:39:37.556Z,14.01
2022-10-15T00:45:05.390Z,14.02
2022-10-15T00:50:35.589Z,14.00
2022-10-15T00:56:00.547Z,14.00
2022-10-15T01:01:24.455Z,14.01
2022-10-15T01:06:51.425Z,14.01
2022-10-15T01:12:16.421Z,14.00
2022-10-15T01:17:51.410Z,14.02
2022-10-15T01:23:47.461Z,14.01
2022-10-15T01:29:25.606Z,14.00
2022-10-15T01:34:58.459Z,13.97
2022-10-15T01:40:30.435Z,13.95
2022-10-15T01:46:03.435Z,13.94
2022-10-15T01:51:50.479Z,13.93
2022-10-15T01:57:15.567Z,13.91
2022-10-15T02:02:41.463Z,13.87
2022-10-15T02:08:15.451Z,13.83
2022-10-15T02:13:51.463Z,13.83
2022-10-15T02:19:21.494Z,13.82
2022-10-15T02:24:55.841Z,13.81
2022-10-15T02:30:23.479Z,13.79
2022-10-15T02:35:55.843Z,13.79
2022-10-15T02:41:25.660Z,13.75
2022-10-15T02:46:51.523Z,13.77
2022-10-15T02:52:16.555Z,13.74
2022-10-15T02:57:43.574Z,13.73
2022-10-15T03:03:08.486Z,13.70
2022-10-15T03:08:32.497Z,13.65
2022-10-15T03:14:00.477Z,13.63
2022-10-15T03:19:26.622Z,13.59
2022-10-15T03:24:51.492Z,13.61
2022-10-15T03:30:22.478Z,13.62
2022-10-15T03:35:48.513Z,13.61
2022-10-15T03:41:14.533Z,13.58
2022-10-15T03:46:43.563Z,13.56
2022-10-15T03:52:12.555Z,13.50
2022-10-15T03:57:38.499Z,13.46
2022-10-15T04:03:06.527Z,13.47
2022-10-15T04:08:31.527Z,13.47
2022-10-15T04:14:09.515Z,13.47
2022-10-15T04:19:37.518Z,13.47
2022-10-15T04:25:01.540Z,13.44
2022-10-15T04:30:26.507Z,13.43
2022-10-15T04:35:56.593Z,13.40
2022-10-15T04:41:47.523Z,13.38
2022-10-15T04:47:16.566Z,13.36
2022-10-15T04:52:57.630Z,13.36
2022-10-15T04:58:25.547Z,13.37
2022-10-15T05:03:52.694Z,13.39
2022-10-15T05:09:21.554Z,13.38
2022-10-15T05:14:46.559Z,13.37
2022-10-15T05:20:17.623Z,13.37
2022-10-15T05:25:44.561Z,13.34
2022-10-15T05:31:17.560Z,13.31
2022-10-15T05:36:57.582Z,13.26
2022-10-15T05:42:27.902Z,13.28
2022-10-15T05:47:52.586Z,13.26
2022-10-15T05:53:17.610Z,13.27
2022-10-15T05:58:49.644Z,13.30
2022-10-15T06:04:14.683Z,13.30
2022-10-15T06:09:38.675Z,13.28
2022-10-15T06:15:05.594Z,13.29
2022-10-15T06:20:29.619Z,13.29
2022-10-15T06:25:55.602Z,13.36
2022-10-15T06:31:23.595Z,13.41
2022-10-15T06:36:54.691Z,13.49
2022-10-15T06:42:19.601Z,13.55
2022-10-15T06:47:50.644Z,13.60
2022-10-15T06:53:16.642Z,13.66
2022-10-15T06:58:40.595Z,13.69
2022-10-15T07:04:08.649Z,13.75
2022-10-15T07:09:32.653Z,13.84
2022-10-15T07:14:57.639Z,13.97
2022-10-15T07:20:25.645Z,14.08
2022-10-15T07:25:56.629Z,14.22
2022-10-15T07:31:21.631Z,14.29
2022-10-15T07:36:56.645Z,14.32
2022-10-15T07:42:21.810Z,14.38
2022-10-15T07:47:45.995Z,14.47
2022-10-15T07:53:12.684Z,14.55
2022-10-15T07:58:41.648Z,14.60
2022-10-15T08:04:06.665Z,14.71
2022-10-15T08:09:33.768Z,14.85
2022-10-15T08:14:58.778Z,14.96
2022-10-15T08:20:23.685Z,15.15
2022-10-15T08:25:51.704Z,15.23
2022-10-15T08:31:17.663Z,15.23
2022-10-15T08:36:48.658Z,15.30
2022-10-15T08:42:25.980Z,15.33
2022-10-15T08:47:54.686Z,15.36
2022-10-15T08:53:24.700Z,15.37
2022-10-15T08:59:01.705Z,15.43
2022-10-15T09:04:35.737Z,15.55
2022-10-15T09:10:06.670Z,15.68
2022-10-15T09:15:43.771Z,15.70
2022-10-15T09:21:10.864Z,15.82
2022-10-15T09:26:42.725Z,15.78
2022-10-15T09:32:18.711Z,15.89
2022-10-15T09:38:04.890Z,16.01
2022-10-15T09:43:37.720Z,16.14
2022-10-15T09:49:10.711Z,16.21
2022-10-15T09:54:44.727Z,16.27
2022-10-15T10:00:10.738Z,16.38
2022-10-15T10:05:40.734Z,16.47
2022-10-15T10:11:10.781Z,16.70
2022-10-15T10:16:39.797Z,16.75
2022-10-15T10:22:23.220Z,16.71
2022-10-15T10:27:55.731Z,16.79
2022-10-15T10:33:21.767Z,16.85
2022-10-15T10:38:49.754Z,16.96
2022-10-15T10:44:13.747Z,17.08
2022-10-15T10:49:44.756Z,17.15
2022-10-15T10:55:31.778Z,17.15
2022-10-15T11:00:59.792Z,17.18
2022-10-15T11:06:58.802Z,17.18
2022-10-15T11:12:44.766Z,17.31
2022-10-15T11:18:23.782Z,17.32
2022-10-15T11:24:11.130Z,17.45
2022-10-15T11:29:47.777Z,17.57
2022-10-15T11:35:55.670Z,17.53
2022-10-15T11:41:36.787Z,17.67
2022-10-15T11:47:18.205Z,17.76
2022-10-15T11:53:02.778Z,17.86
2022-10-15T11:58:36.785Z,18.02
2022-10-15T12:04:11.820Z,17.92
2022-10-15T12:09:41.803Z,17.92
2022-10-15T12:15:21.801Z,17.97
2022-10-15T12:20:48.806Z,18.28
2022-10-15T12:26:38.838Z,18.57
2022-10-15T12:32:06.854Z,18.50
2022-10-15T12:37:43.830Z,18.55
2022-10-15T12:43:13.321Z,18.73
2022-10-15T12:48:46.833Z,18.70
2022-10-15T12:54:47.817Z,18.48
2022-10-15T13:00:14.850Z,18.26
2022-10-15T13:05:41.852Z,18.24
2022-10-15T13:11:12.846Z,18.31
2022-10-15T13:16:38.839Z,18.29
2022-10-15T13:22:04.834Z,18.26
2022-10-15T13:27:35.862Z,18.16
2022-10-15T13:33:03.006Z,18.06
2022-10-15T13:38:38.029Z,18.27
2022-10-15T13:44:08.862Z,18.93
2022-10-15T13:49:34.857Z,18.79
2022-10-15T13:54:59.853Z,18.83
2022-10-15T14:00:35.953Z,18.71
2022-10-15T14:06:03.983Z,18.55
2022-10-15T14:11:29.946Z,18.33
2022-10-15T14:16:57.911Z,18.23
2022-10-15T14:22:22.867Z,18.22
2022-10-15T14:27:47.913Z,18.18
2022-10-15T14:33:14.888Z,18.20
2022-10-15T14:38:45.908Z,18.08
2022-10-15T14:44:28.917Z,18.02
2022-10-15T14:49:55.907Z,17.95
2022-10-15T14:55:27.414Z,17.83
2022-10-15T15:00:55.894Z,17.80
2022-10-15T15:06:24.905Z,17.81
2022-10-15T15:11:49.206Z,17.87
2022-10-15T15:17:14.007Z,17.94
2022-10-15T15:22:46.062Z,17.93
2022-10-15T15:28:11.974Z,17.98
2022-10-15T15:33:43.938Z,17.95
2022-10-15T15:39:12.059Z,17.84
2022-10-15T15:44:35.929Z,17.74
2022-10-15T15:50:00.943Z,17.61
2022-10-15T15:55:28.979Z,17.51
2022-10-15T16:00:53.964Z,17.43
2022-10-15T16:06:20.963Z,17.29
2022-10-15T16:11:48.944Z,17.20
2022-10-15T16:17:12.988Z,17.02
2022-10-15T16:22:37.980Z,16.94
2022-10-15T16:28:08.059Z,16.80
2022-10-15T16:33:33.017Z,16.72
2022-10-15T16:39:03.994Z,16.55
2022-10-15T16:44:31.957Z,16.46
2022-10-15T16:49:57.221Z,16.35
2022-10-15T16:55:22.969Z,16.25
2022-10-15T17:00:50.004Z,16.13
2022-10-15T17:06:18.189Z,16.12
2022-10-15T17:11:45.076Z,16.11
2022-10-15T17:17:13.986Z,16.11
2022-10-15T17:22:39.043Z,16.06
2022-10-15T17:28:04.046Z,16.09
2022-10-15T17:33:32.030Z,16.14
2022-10-15T17:39:04.031Z,16.17
2022-10-15T17:44:29.171Z,16.17
2022-10-15T17:49:56.016Z,16.20
2022-10-15T17:55:21.039Z,16.22
2022-10-15T18:00:46.013Z,16.22
2022-10-15T18:06:26.047Z,16.24
2022-10-15T18:11:53.051Z,16.21
2022-10-15T18:17:25.220Z,16.17
2022-10-15T18:22:53.014Z,16.18
2022-10-15T18:28:20.112Z,16.20
2022-10-15T18:33:47.044Z,16.21
2022-10-15T18:39:21.037Z,16.20
2022-10-15T18:44:46.057Z,16.21
2022-10-15T18:50:10.074Z,16.23
2022-10-15T18:55:39.074Z,16.22
2022-10-15T19:01:05.061Z,16.23
2022-10-15T19:06:30.088Z,16.23
2022-10-15T19:11:59.162Z,16.20
2022-10-15T19:17:24.071Z,16.20
2022-10-15T19:22:48.098Z,16.16
2022-10-15T19:28:09.070Z,16.12
2022-10-15T19:33:37.099Z,16.06
2022-10-15T19:39:09.076Z,16.04
2022-10-15T19:44:37.103Z,15.98
2022-10-15T19:50:06.117Z,15.95
2022-10-15T19:55:31.091Z,15.92
2022-10-15T20:01:03.130Z,15.90
2022-10-15T20:06:29.122Z,15.83
2022-10-15T20:11:54.087Z,15.75
2022-10-15T20:17:22.183Z,15.70
2022-10-15T20:22:46.159Z,15.64
2022-10-15T20:28:11.132Z,15.67
2022-10-15T20:33:39.093Z,15.64
2022-10-15T20:39:10.139Z,15.62
2022-10-15T20:44:35.129Z,15.60
2022-10-15T20:50:06.123Z,15.59
2022-10-15T20:55:31.129Z,15.56
2022-10-15T21:00:56.143Z,15.49
2022-10-15T21:06:25.110Z,15.49
2022-10-15T21:11:50.723Z,15.39
2022-10-15T21:17:16.285Z,15.37
2022-10-15T21:22:44.251Z,15.33
2022-10-15T21:28:09.166Z,15.29
2022-10-15T21:33:33.192Z,15.20
2022-10-15T21:39:11.154Z,15.19
2022-10-15T21:44:36.187Z,15.17
2022-10-15T21:50:00.142Z,15.11
2022-10-15T21:55:30.537Z,15.16
2022-10-15T22:00:54.283Z,15.21
2022-10-15T22:06:20.168Z,15.29
2022-10-15T22:11:49.182Z,15.35
2022-10-15T22:17:14.183Z,15.40
2022-10-15T22:22:39.814Z,15.44
2022-10-15T22:28:08.175Z,15.50
2022-10-15T22:33:33.189Z,15.52
2022-10-15T22:39:11.215Z,15.58
2022-10-15T22:44:32.197Z,15.62
2022-10-15T22:49:57.362Z,15.67
2022-10-15T22:55:22.207Z,15.70
2022-10-15T23:00:49.253Z,15.74
2022-10-15T23:06:13.193Z,15.78
2022-10-15T23:11:40.222Z,15.81
2022-10-15T23:17:07.219Z,15.82
2022-10-15T23:22:32.194Z,15.85
2022-10-15T23:27:58.208Z,15.86
2022-10-15T23:33:25.238Z,15.87
2022-10-15T23:38:56.223Z,15.86
2022-10-15T23:44:22.258Z,15.83
2022-10-15T23:49:49.239Z,15.80
2022-10-15T23:55:15.233Z,15.78
